createdAt,value
2023-02-27T00:01:07.279Z,99873.59
2023-02-27T00:03:55.770Z,99883.91
2023-02-27T00:06:22.477Z,99881.19
2023-02-27T00:08:49.131Z,99887.75
2023-02-27T00:11:15.749Z,99888.72
2023-02-27T01:12:06.224Z,99939.09
2023-02-27T01:14:33.057Z,99939.16
2023-02-27T01:16:59.708Z,99933.63
2023-02-27T01:23:07.830Z,99940.28
2023-02-27T01:25:34.834Z,99939.03
2023-02-27T01:28:01.451Z,99935.78
2023-02-27T01:30:28.274Z,99940.66
2023-02-27T01:32:57.283Z,99947.06
2023-02-27T01:35:23.915Z,99939.91
2023-02-27T01:38:12.254Z,99940.53
2023-02-27T01:40:41.179Z,99941.53
2023-02-27T01:43:15.975Z,99941.47
2023-02-27T01:45:47.688Z,99938.47
2023-02-27T01:52:08.700Z,99937.59
2023-02-27T02:23:11.206Z,99986.03
2023-02-27T02:25:56.270Z,99992.56
2023-02-27T02:28:47.760Z,99994.97
2023-02-27T02:31:27.332Z,99994.66
2023-02-27T02:34:09.232Z,100000.25
2023-02-27T02:36:55.069Z,100006.87
2023-02-27T02:43:28.293Z,100008.94
2023-02-27T02:46:16.773Z,100007.44
2023-02-27T02:49:01.545Z,100004.44
2023-02-27T02:51:28.322Z,100007.97
2023-02-27T02:54:25.853Z,100019.56
2023-02-27T02:57:24.036Z,100020.88
2023-02-27T02:59:58.079Z,100022.19
2023-02-27T03:02:31.341Z,100016.44
2023-02-27T03:05:05.394Z,100032.78
2023-02-27T03:08:27.294Z,100031.59
2023-02-27T03:11:17.975Z,100026.81
2023-02-27T03:14:09.552Z,100038.50
2023-02-27T03:16:43.390Z,100037.69
2023-02-27T03:19:26.378Z,100042.75
2023-02-27T03:22:17.240Z,100042.50
2023-02-27T03:24:55.937Z,100046.72
2023-02-27T03:29:57.691Z,100058.16
2023-02-27T03:32:51.946Z,100055.03
2023-02-27T03:35:18.859Z,100057.37
2023-02-27T03:37:54.186Z,100059.84
2023-02-27T03:40:35.781Z,100057.53
2023-02-27T03:47:01.766Z,100074.09
2023-02-27T03:49:28.503Z,100074.00
2023-02-27T03:51:55.222Z,100072.38
2023-02-27T03:54:41.408Z,100078.53
2023-02-27T03:57:08.950Z,100068.06
2023-02-27T03:59:37.941Z,100076.00
2023-02-27T04:04:40.344Z,100081.19
2023-02-27T04:07:25.171Z,100076.69
2023-02-27T04:10:22.595Z,100074.44
2023-02-27T04:13:22.855Z,100071.09
2023-02-27T04:16:11.981Z,100071.81
2023-02-27T04:22:19.695Z,100087.22
2023-02-27T04:53:57.157Z,100099.94
2023-02-27T04:56:31.068Z,100103.34
2023-02-27T04:59:03.381Z,100108.84
2023-02-27T05:01:37.655Z,100099.88
2023-02-27T05:04:07.670Z,100093.03
2023-02-27T05:06:51.120Z,100109.25
2023-02-27T05:09:29.572Z,100108.44
2023-02-27T05:12:04.611Z,100114.84
2023-02-27T05:14:43.869Z,100126.78
2023-02-27T05:17:32.504Z,100129.59
2023-02-27T05:20:56.972Z,100125.97
2023-02-27T05:23:38.874Z,100134.31
2023-02-27T05:26:18.350Z,100131.53
2023-02-27T05:29:11.555Z,100133.41
2023-02-27T05:31:51.668Z,100148.06
2023-02-27T05:34:30.034Z,100143.50
2023-02-27T05:59:47.646Z,100172.59
2023-02-27T06:02:14.563Z,100185.69
2023-02-27T06:04:41.417Z,100181.28
2023-02-27T06:07:08.636Z,100190.97
2023-02-27T06:09:35.915Z,100193.31
2023-02-27T06:12:02.608Z,100192.47
2023-02-27T06:14:29.196Z,100199.66
2023-02-27T06:16:55.795Z,100213.19
2023-02-27T06:19:22.604Z,100214.25
2023-02-27T06:21:50.177Z,100220.72
2023-02-27T06:24:16.761Z,100219.78
2023-02-27T06:26:43.402Z,100230.06
2023-02-27T06:29:09.954Z,100232.22
2023-02-27T06:31:36.489Z,100242.19
2023-02-27T06:34:03.055Z,100243.75
2023-02-27T06:36:30.148Z,100243.22
2023-02-27T06:38:58.049Z,100255.59
2023-02-27T06:41:24.634Z,100265.34
2023-02-27T06:43:51.429Z,100257.59
2023-02-27T06:46:18.007Z,100271.09
2023-02-27T06:48:45.596Z,100270.13
2023-02-27T06:51:12.206Z,100278.03
2023-02-27T06:53:38.736Z,100285.16
2023-02-27T06:56:05.874Z,100280.16
2023-02-27T06:58:32.451Z,100287.38
2023-02-27T07:01:00.498Z,100290.59
2023-02-27T07:03:27.168Z,100295.88
2023-02-27T07:05:53.734Z,100291.34
2023-02-27T07:08:20.594Z,100294.66
2023-02-27T07:10:49.172Z,100299.84
2023-02-27T07:13:19.663Z,100305.13
2023-02-27T07:15:46.750Z,100307.81
2023-02-27T07:18:13.333Z,100307.63
2023-02-27T07:20:40.298Z,100308.50
2023-02-27T07:23:07.311Z,100313.84
2023-02-27T07:25:33.925Z,100311.03
2023-02-27T07:28:00.892Z,100316.50
2023-02-27T07:30:27.448Z,100313.38
2023-02-27T07:32:54.090Z,100318.16
2023-02-27T07:35:21.099Z,100316.22
2023-02-27T07:37:47.913Z,100323.28
2023-02-27T07:40:14.943Z,100315.56
2023-02-27T07:42:41.565Z,100329.91
2023-02-27T07:45:08.878Z,100329.34
2023-02-27T07:47:35.782Z,100324.47
2023-02-27T07:50:03.362Z,100320.22
2023-02-27T07:55:02.587Z,100327.94
2023-02-27T07:57:29.471Z,100333.88
2023-02-27T07:59:56.039Z,100332.37
2023-02-27T08:02:23.080Z,100327.63
2023-02-27T08:04:49.768Z,100335.75
2023-02-27T08:07:16.626Z,100330.97
2023-02-27T08:09:43.170Z,100339.91
2023-02-27T08:12:09.864Z,100342.53
2023-02-27T08:14:36.439Z,100362.81
2023-02-27T08:17:04.255Z,100358.91
2023-02-27T08:19:30.942Z,100353.91
2023-02-27T08:21:57.554Z,100365.56
2023-02-27T08:24:24.223Z,100364.56
2023-02-27T08:26:51.037Z,100372.22
2023-02-27T08:29:17.616Z,100375.06
2023-02-27T08:31:44.522Z,100379.72
2023-02-27T08:34:11.442Z,100387.25
2023-02-27T08:36:38.242Z,100384.81
2023-02-27T08:39:05.789Z,100387.69
2023-02-27T08:41:32.546Z,100396.44
2023-02-27T08:43:59.244Z,100401.09
2023-02-27T08:46:26.382Z,100403.81
2023-02-27T08:48:53.273Z,100397.84
2023-02-27T08:51:19.850Z,100396.53
2023-02-27T08:53:46.421Z,100398.69
2023-02-27T08:56:12.948Z,100404.16
2023-02-27T08:58:39.610Z,100401.81
2023-02-27T09:01:06.303Z,100399.31
2023-02-27T09:03:33.009Z,100401.50
2023-02-27T09:05:59.582Z,100403.50
2023-02-27T09:08:26.203Z,100403.37
2023-02-27T09:10:57.120Z,100409.59
2023-02-27T09:13:24.021Z,100417.72
2023-02-27T09:15:50.650Z,100415.53
2023-02-27T09:18:17.201Z,100424.84
2023-02-27T09:20:43.756Z,100422.91
2023-02-27T09:23:10.803Z,100420.63
2023-02-27T09:25:38.149Z,100420.91
2023-02-27T09:28:05.012Z,100413.75
2023-02-27T09:30:31.648Z,100421.19
2023-02-27T09:32:58.250Z,100427.25
2023-02-27T09:35:25.476Z,100420.03
2023-02-27T09:37:52.505Z,100421.41
2023-02-27T09:40:25.452Z,100422.78
2023-02-27T09:42:53.910Z,100417.13
2023-02-27T09:45:28.672Z,100434.09
2023-02-27T09:48:01.010Z,100427.03
2023-02-27T09:50:40.992Z,100433.34
2023-02-27T09:53:16.948Z,100426.34
2023-02-27T09:55:45.885Z,100428.03
2023-02-27T09:58:37.982Z,100429.91
2023-02-27T10:01:18.970Z,100431.84
2023-02-27T10:03:59.614Z,100438.66
2023-02-27T10:06:44.347Z,100439.28
2023-02-27T10:09:38.595Z,100444.78
2023-02-27T10:12:21.371Z,100447.34
2023-02-27T10:14:54.835Z,100438.81
2023-02-27T10:17:24.631Z,100438.19
2023-02-27T10:19:53.321Z,100441.34
2023-02-27T10:22:30.493Z,100438.41
2023-02-27T10:25:03.457Z,100439.41
2023-02-27T10:27:30.967Z,100436.91
2023-02-27T10:30:23.600Z,100441.63
2023-02-27T10:33:25.826Z,100435.94
2023-02-27T10:35:53.969Z,100437.97
2023-02-27T10:38:20.490Z,100430.63
2023-02-27T10:40:59.448Z,100436.94
2023-02-27T10:43:26.112Z,100432.59
2023-02-27T10:45:53.421Z,100438.88
2023-02-27T10:48:20.626Z,100436.28
2023-02-27T10:51:28.521Z,100442.28
2023-02-27T10:54:52.049Z,100435.78
2023-02-27T10:57:27.866Z,100428.44
2023-02-27T11:00:33.557Z,100423.34
2023-02-27T11:03:00.208Z,100436.97
2023-02-27T11:05:35.860Z,100440.22
2023-02-27T11:08:21.119Z,100437.44
2023-02-27T11:11:14.188Z,100444.00
2023-02-27T11:13:43.341Z,100426.00
2023-02-27T11:16:23.758Z,100437.84
2023-02-27T11:18:54.350Z,100435.78
2023-02-27T11:21:29.542Z,100442.38
2023-02-27T11:24:02.227Z,100434.19
2023-02-27T11:26:37.772Z,100442.81
2023-02-27T11:29:12.862Z,100449.63
2023-02-27T11:31:39.907Z,100450.47
2023-02-27T11:34:08.373Z,100437.22
2023-02-27T11:40:50.561Z,100443.56
2023-02-27T11:43:21.181Z,100441.50
2023-02-27T11:46:46.194Z,100450.72
2023-02-27T11:49:03.080Z,100448.59
2023-02-27T11:51:47.470Z,100449.38
2023-02-27T11:54:38.032Z,100436.00
2023-02-27T11:57:20.723Z,100436.56
2023-02-27T11:59:58.632Z,100435.50
2023-02-27T12:02:46.026Z,100431.62
2023-02-27T12:05:24.262Z,100434.22
2023-02-27T12:07:57.290Z,100430.22
2023-02-27T12:10:28.943Z,100420.56
2023-02-27T12:13:14.166Z,100426.69
2023-02-27T12:15:40.681Z,100422.84
2023-02-27T12:18:35.968Z,100435.44
2023-02-27T12:21:49.245Z,100428.06
2023-02-27T12:24:36.562Z,100428.91
2023-02-27T12:27:29.656Z,100441.19
2023-02-27T12:30:07.675Z,100445.81
2023-02-27T12:32:40.813Z,100446.22
2023-02-27T12:35:13.237Z,100452.25
2023-02-27T12:37:39.824Z,100440.50
2023-02-27T12:40:10.788Z,100455.66
2023-02-27T12:42:52.470Z,100460.19
2023-02-27T12:45:37.536Z,100451.41
2023-02-27T12:48:19.913Z,100449.53
2023-02-27T12:51:07.773Z,100454.37
2023-02-27T12:53:34.266Z,100454.16
2023-02-27T12:56:12.974Z,100460.28
2023-02-27T12:59:11.858Z,100452.66
2023-02-27T13:01:59.409Z,100465.69
2023-02-27T13:04:36.106Z,100460.91
2023-02-27T13:07:17.709Z,100467.06
2023-02-27T13:09:52.037Z,100464.59
2023-02-27T13:12:40.938Z,100460.41
2023-02-27T13:15:21.995Z,100466.94
2023-02-27T13:17:56.125Z,100471.94
2023-02-27T13:20:26.885Z,100474.87
2023-02-27T13:22:53.363Z,100475.44
2023-02-27T13:25:20.942Z,100483.06
2023-02-27T13:28:04.844Z,100474.28
2023-02-27T13:31:09.113Z,100476.00
2023-02-27T13:33:58.726Z,100488.47
2023-02-27T13:36:31.976Z,100485.22
2023-02-27T13:38:58.880Z,100488.00
2023-02-27T13:41:25.464Z,100482.38
2023-02-27T13:44:22.677Z,100478.13
2023-02-27T13:46:49.298Z,100485.25
2023-02-27T13:49:28.325Z,100478.09
2023-02-27T13:51:58.685Z,100482.50
2023-02-27T13:57:23.384Z,100480.06
2023-02-27T13:59:56.938Z,100478.28
2023-02-27T14:02:41.969Z,100476.63
2023-02-27T14:05:16.017Z,100479.22
2023-02-27T14:08:06.900Z,100478.91
2023-02-27T14:14:32.156Z,100465.47
2023-02-27T14:17:00.033Z,100475.91
2023-02-27T14:19:43.506Z,100468.72
2023-02-27T14:22:12.917Z,100473.91
2023-02-27T14:25:02.550Z,100473.09
2023-02-27T14:27:40.507Z,100472.97
2023-02-27T14:30:21.691Z,100469.12
2023-02-27T14:32:57.332Z,100473.66
2023-02-27T14:35:24.520Z,100475.34
2023-02-27T14:37:53.499Z,100467.91
2023-02-27T14:40:34.073Z,100476.94
2023-02-27T14:43:43.198Z,100476.88
2023-02-27T14:46:39.752Z,100482.91
2023-02-27T14:49:26.371Z,100485.69
2023-02-27T14:51:53.736Z,100495.41
2023-02-27T14:54:23.735Z,100486.97
2023-02-27T14:57:01.465Z,100480.22
2023-02-27T14:59:42.891Z,100486.34
2023-02-27T15:02:27.836Z,100486.00
2023-02-27T15:05:13.728Z,100489.09
2023-02-27T15:07:40.989Z,100490.41
2023-02-27T15:10:09.806Z,100495.75
2023-02-27T15:12:40.243Z,100489.69
2023-02-27T15:15:09.765Z,100506.00
2023-02-27T15:17:40.129Z,100510.53
2023-02-27T15:20:29.773Z,100512.31
2023-02-27T15:23:18.261Z,100515.34
2023-02-27T15:25:44.845Z,100524.47
2023-02-27T15:28:24.978Z,100521.38
2023-02-27T15:30:53.758Z,100529.41
2023-02-27T15:33:28.317Z,100526.94
2023-02-27T15:35:56.061Z,100534.63
2023-02-27T15:38:35.572Z,100537.59
2023-02-27T15:41:04.173Z,100539.09
2023-02-27T15:43:31.950Z,100553.06
2023-02-27T15:45:59.065Z,100552.09
2023-02-27T15:48:26.227Z,100554.84
2023-02-27T15:50:56.889Z,100559.22
2023-02-27T15:53:26.326Z,100561.31
2023-02-27T15:55:56.701Z,100561.97
2023-02-27T15:58:31.956Z,100572.66
2023-02-27T16:01:04.816Z,100570.25
2023-02-27T16:03:38.844Z,100570.75
2023-02-27T16:06:16.648Z,100575.87
2023-02-27T16:08:48.062Z,100579.53
2023-02-27T16:11:22.828Z,100585.03
2023-02-27T16:13:50.003Z,100579.97
2023-02-27T16:16:28.591Z,100591.34
2023-02-27T16:19:00.605Z,100584.41
2023-02-27T16:21:31.156Z,100590.59
2023-02-27T16:24:18.592Z,100594.91
2023-02-27T16:26:51.219Z,100608.53
2023-02-27T16:29:34.934Z,100608.41
2023-02-27T16:32:03.010Z,100611.81
2023-02-27T16:34:42.831Z,100611.06
2023-02-27T16:37:21.225Z,100620.06
2023-02-27T16:39:51.052Z,100623.34
2023-02-27T16:42:17.772Z,100624.88
2023-02-27T16:44:44.310Z,100632.44
2023-02-27T16:47:10.948Z,100640.66
2023-02-27T16:49:40.364Z,100642.28
2023-02-27T16:52:11.023Z,100646.22
2023-02-27T16:54:37.824Z,100645.53
2023-02-27T16:57:04.672Z,100658.75
2023-02-27T16:59:36.440Z,100655.75
2023-02-27T17:02:10.897Z,100661.38
2023-02-27T17:04:37.502Z,100663.31
2023-02-27T17:07:06.492Z,100670.03
2023-02-27T17:09:33.577Z,100671.88
2023-02-27T17:12:00.118Z,100660.09
2023-02-27T17:14:26.800Z,100671.03
2023-02-27T17:16:53.506Z,100678.63
2023-02-27T17:19:21.503Z,100683.47
2023-02-27T17:21:48.663Z,100683.81
2023-02-27T17:24:15.309Z,100683.97
2023-02-27T17:26:41.900Z,100686.31
2023-02-27T17:29:09.748Z,100686.75
2023-02-27T17:31:37.292Z,100696.91
2023-02-27T17:34:05.349Z,100694.06
2023-02-27T17:36:32.130Z,100690.59
2023-02-27T17:39:02.494Z,100689.09
2023-02-27T17:41:31.094Z,100695.44
2023-02-27T17:43:59.126Z,100700.84
2023-02-27T17:46:28.145Z,100689.47
2023-02-27T17:49:00.180Z,100698.47
2023-02-27T17:51:28.728Z,100704.22
2023-02-27T17:53:55.733Z,100712.97
2023-02-27T17:56:22.344Z,100714.56
2023-02-27T17:58:49.069Z,100721.22
2023-02-27T18:01:21.500Z,100729.41
2023-02-27T18:03:49.438Z,100727.41
2023-02-27T18:06:17.264Z,100735.91
2023-02-27T18:08:46.354Z,100736.28
2023-02-27T18:11:15.746Z,100736.91
2023-02-27T18:13:46.596Z,100725.41
2023-02-27T18:16:16.773Z,100725.66
2023-02-27T18:18:43.935Z,100725.59
2023-02-27T18:21:17.077Z,100729.75
2023-02-27T18:23:44.272Z,100731.38
2023-02-27T18:26:30.116Z,100728.06
2023-02-27T18:29:03.324Z,100732.53
2023-02-27T18:31:36.144Z,100734.16
2023-02-27T18:34:03.601Z,100744.41
2023-02-27T18:36:31.541Z,100743.38
2023-02-27T18:38:59.885Z,100751.06
2023-02-27T18:41:26.936Z,100750.31
2023-02-27T18:43:53.874Z,100768.38
2023-02-27T18:46:20.918Z,100767.81
2023-02-27T18:48:47.647Z,100771.56
2023-02-27T18:51:17.328Z,100775.94
2023-02-27T18:53:49.168Z,100779.19
2023-02-27T18:56:18.394Z,100784.03
2023-02-27T18:58:47.992Z,100789.41
2023-02-27T19:01:20.254Z,100798.53
2023-02-27T19:03:46.858Z,100799.72
2023-02-27T19:06:13.538Z,100809.25
2023-02-27T19:08:40.292Z,100804.53
2023-02-27T19:11:06.860Z,100806.06
2023-02-27T19:13:33.468Z,100819.13
2023-02-27T19:16:07.328Z,100816.09
2023-02-27T19:18:33.972Z,100823.75
2023-02-27T19:21:04.978Z,100833.06
2023-02-27T19:23:36.177Z,100834.38
2023-02-27T19:26:02.919Z,100839.75
2023-02-27T19:28:29.619Z,100837.91
2023-02-27T19:30:57.515Z,100838.13
2023-02-27T19:33:24.610Z,100837.50
2023-02-27T19:35:51.436Z,100832.28
2023-02-27T19:38:20.816Z,100838.09
2023-02-27T19:40:47.380Z,100838.16
2023-02-27T19:43:23.264Z,100831.72
2023-02-27T19:45:49.870Z,100821.81
2023-02-27T19:48:19.626Z,100831.06
2023-02-27T19:50:46.685Z,100836.22
2023-02-27T19:53:13.502Z,100842.09
2023-02-27T19:55:40.262Z,100842.47
2023-02-27T19:58:07.017Z,100849.00
2023-02-27T20:00:33.688Z,100857.28
2023-02-27T20:03:00.695Z,100869.22
2023-02-27T20:05:27.804Z,100873.72
2023-02-27T20:07:54.401Z,100884.41
2023-02-27T20:10:21.129Z,100885.09
2023-02-27T20:12:47.708Z,100893.31
2023-02-27T20:15:14.338Z,100888.75
2023-02-27T20:17:42.083Z,100896.34
2023-02-27T20:20:09.870Z,100899.16
2023-02-27T20:22:38.164Z,100898.16
2023-02-27T20:25:05.122Z,100900.47
2023-02-27T20:27:33.363Z,100895.09
2023-02-27T20:30:06.676Z,100884.25
2023-02-27T20:32:33.454Z,100898.44
2023-02-27T20:35:00.070Z,100898.72
2023-02-27T20:37:28.869Z,100890.16
2023-02-27T20:40:20.317Z,100910.75
2023-02-27T21:00:26.865Z,100907.41
2023-02-27T21:02:54.351Z,100913.91
2023-02-27T21:05:20.978Z,100919.28
2023-02-27T21:07:47.594Z,100931.06
2023-02-27T21:10:14.226Z,100934.53
2023-02-27T21:12:41.280Z,100931.75
2023-02-27T21:15:38.988Z,100934.34
2023-02-27T21:18:33.840Z,100937.97
2023-02-27T21:21:22.772Z,100934.44
2023-02-27T21:23:49.954Z,100930.12
2023-02-27T21:26:18.654Z,100937.97
2023-02-27T21:28:50.459Z,100932.69
2023-02-27T21:31:36.125Z,100923.25
2023-02-27T21:36:42.379Z,100930.09
2023-02-27T21:39:13.018Z,100947.78
2023-02-27T21:41:39.850Z,100947.38
2023-02-27T21:44:08.150Z,100950.56
2023-02-27T21:46:35.150Z,100953.69
2023-02-27T21:49:24.823Z,100946.75
2023-02-27T21:52:33.717Z,100949.16
2023-02-27T22:11:48.124Z,100935.69
2023-02-27T22:14:15.202Z,100934.06
2023-02-27T22:16:42.443Z,100934.31
2023-02-27T22:19:19.591Z,100934.03
2023-02-27T22:21:46.294Z,100938.06
2023-02-27T22:28:13.080Z,100931.75
2023-02-27T22:30:39.714Z,100928.09
2023-02-27T22:33:06.282Z,100929.81
2023-02-27T22:35:51.607Z,100928.16
2023-02-27T22:38:18.308Z,100930.88
2023-02-27T22:40:44.860Z,100931.91
2023-02-27T22:43:31.296Z,100930.88
2023-02-27T22:45:58.285Z,100945.81
2023-02-27T22:48:25.276Z,100942.50
2023-02-27T22:51:06.030Z,100942.88
2023-02-27T22:53:53.626Z,100933.56
2023-02-27T22:57:07.847Z,100942.09
2023-02-27T22:59:39.974Z,100934.41
2023-02-27T23:02:06.641Z,100933.16
2023-02-27T23:04:33.341Z,100936.47
2023-02-27T23:06:59.904Z,100944.75
2023-02-27T23:09:29.201Z,100945.59
2023-02-27T23:11:55.797Z,100940.62
2023-02-27T23:14:26.236Z,100934.41
2023-02-27T23:16:52.829Z,100934.19
2023-02-27T23:19:20.789Z,100940.22
2023-02-27T23:21:47.742Z,100942.09
2023-02-27T23:24:29.667Z,100942.69
2023-02-27T23:27:27.210Z,100936.06
2023-02-27T23:30:06.973Z,100935.84
2023-02-27T23:32:43.185Z,100948.31
2023-02-27T23:35:13.139Z,100940.22
2023-02-27T23:37:39.733Z,100941.44
2023-02-27T23:40:07.084Z,100933.34
2023-02-27T23:42:34.120Z,100941.69
2023-02-27T23:45:23.008Z,100947.06
2023-02-27T23:47:55.169Z,100954.09
2023-02-27T23:50:24.116Z,100959.72
2023-02-27T23:52:54.788Z,100960.13
2023-02-27T23:56:11.662Z,100959.72
2023-02-27T23:58:45.350Z,100956.63
